Time;durP1;ratioP1;P1;durP2;ratioP2;P2;SDS_P1;SDS_P2;PMS_P1;PMS_P2;Temp;Humidity;BMP_temperature;BMP_pressure;BME280_temperature;BME280_humidity;BME280_pressure;Samples;Min_cycle;Max_cycle;Signal;HPM_P1;HPM_P2
2021/11/19 00:00:59;;;;;;;55.67;30.63;;;10.90;90.50;;;;;;5076978;28;20021;-79
2021/11/19 00:03:26;;;;;;;51.30;28.67;;;10.90;90.50;;;;;;5077519;28;20024;-78
2021/11/19 00:05:52;;;;;;;56.72;31.55;;;10.90;90.50;;;;;;5077369;28;20032;-79
2021/11/19 00:08:25;;;;;;;49.58;29.17;;;10.90;90.50;;;;;;5076357;28;20515;-78
2021/11/19 00:10:52;;;;;;;46.53;28.50;;;10.90;90.50;;;;;;5077185;28;20502;-78
2021/11/19 00:13:17;;;;;;;53.75;30.60;;;10.90;90.50;;;;;;5077035;28;20040;-78
2021/11/19 00:15:43;;;;;;;49.05;29.38;;;10.90;90.60;;;;;;5077133;28;20029;-78
2021/11/19 00:18:09;;;;;;;50.67;27.92;;;10.90;90.60;;;;;;5077170;28;20039;-78
2021/11/19 00:20:35;;;;;;;48.83;29.73;;;10.90;90.50;;;;;;5077381;28;20021;-78
2021/11/19 00:23:04;;;;;;;49.15;29.00;;;10.90;90.50;;;;;;5077107;28;20116;-78
2021/11/19 00:25:30;;;;;;;45.67;28.15;;;10.90;90.50;;;;;;5077183;28;20085;-78
2021/11/19 00:27:57;;;;;;;49.85;28.90;;;10.90;90.50;;;;;;5077029;28;20024;-78
2021/11/19 00:30:24;;;;;;;55.38;29.63;;;10.90;90.50;;;;;;5077211;28;20049;-78
2021/11/19 00:32:50;;;;;;;49.20;28.90;;;10.80;90.50;;;;;;5076536;28;20024;-78
2021/11/19 00:35:18;;;;;;;45.22;26.77;;;10.90;90.60;;;;;;5077369;28;20488;-79
2021/11/19 00:37:47;;;;;;;49.60;30.20;;;10.90;90.60;;;;;;5076873;28;20044;-78
2021/11/19 00:40:28;;;;;;;64.97;35.40;;;10.80;90.50;;;;;;5076987;28;20056;-79
2021/11/19 00:42:54;;;;;;;79.38;37.83;;;10.80;90.60;;;;;;5063728;28;20510;-79
2021/11/19 00:45:23;;;;;;;74.65;37.25;;;10.80;90.60;;;;;;5076937;28;20054;-79
2021/11/19 00:47:50;;;;;;;72.72;34.97;;;10.80;90.60;;;;;;5063152;28;20040;-78
2021/11/19 00:50:16;;;;;;;71.63;36.47;;;10.80;90.60;;;;;;5077251;28;20028;-79
2021/11/19 00:52:42;;;;;;;69.60;36.67;;;10.80;90.70;;;;;;5076879;28;20032;-78
2021/11/19 00:55:08;;;;;;;65.63;34.60;;;10.80;90.70;;;;;;5072201;28;20028;-78
2021/11/19 00:57:34;;;;;;;66.03;34.35;;;10.80;90.70;;;;;;5076904;28;20024;-78
2021/11/19 01:00:01;;;;;;;63.30;33.38;;;10.80;90.70;;;;;;5076863;28;20093;-78
2021/11/19 01:02:27;;;;;;;64.20;32.40;;;10.80;90.70;;;;;;5076711;28;20020;-78
2021/11/19 01:04:53;;;;;;;58.08;30.95;;;10.80;90.70;;;;;;5076687;28;20077;-78
2021/11/19 01:07:21;;;;;;;53.40;29.23;;;10.80;90.70;;;;;;5077084;28;20027;-78
2021/11/19 01:10:00;;;;;;;44.63;26.75;;;10.80;90.70;;;;;;5076502;28;20106;-78
2021/11/19 01:12:28;;;;;;;53.03;28.48;;;10.80;90.70;;;;;;5076677;28;20020;-78
2021/11/19 01:14:59;;;;;;;52.83;29.70;;;10.80;90.80;;;;;;5076589;28;20074;-78
2021/11/19 01:17:33;;;;;;;49.13;29.02;;;10.80;90.80;;;;;;5076619;28;20032;-78
2021/11/19 01:20:19;;;;;;;57.42;29.50;;;10.80;91.10;;;;;;5078642;28;20048;-78
2021/11/19 01:22:48;;;;;;;47.25;26.35;;;10.80;90.80;;;;;;5080164;28;20479;-78
2021/11/19 01:25:17;;;;;;;47.60;27.35;;;10.80;90.80;;;;;;5080466;28;20017;-78
2021/11/19 01:27:44;;;;;;;47.00;28.25;;;10.70;90.80;;;;;;5080078;28;20089;-78
2021/11/19 01:30:17;;;;;;;50.15;28.65;;;10.80;90.80;;;;;;5080306;28;20060;-79
2021/11/19 01:32:43;;;;;;;61.70;31.00;;;10.70;90.80;;;;;;5079446;28;20028;-78
2021/11/19 01:35:09;;;;;;;42.83;26.90;;;10.80;90.90;;;;;;5080172;28;20388;-79
2021/11/19 01:37:36;;;;;;;51.47;28.85;;;10.80;90.90;;;;;;5079880;28;20090;-78
2021/11/19 01:40:05;;;;;;;42.83;26.85;;;10.70;90.90;;;;;;5079809;28;20029;-79
2021/11/19 01:42:34;;;;;;;46.35;28.52;;;10.70;90.80;;;;;;5079966;28;20095;-79
2021/11/19 01:45:24;;;;;;;47.22;28.55;;;10.80;90.80;;;;;;5080036;28;20025;-79
2021/11/19 01:47:53;;;;;;;50.17;30.05;;;10.70;90.80;;;;;;5065099;28;20012;-79
2021/11/19 01:50:26;;;;;;;54.33;29.25;;;10.80;90.80;;;;;;5079912;28;20617;-79
2021/11/19 01:53:14;;;;;;;49.63;28.48;;;10.80;90.80;;;;;;5066896;28;20049;-79
2021/11/19 01:56:05;;;;;;;53.67;30.20;;;10.70;90.80;;;;;;5078082;28;20053;-79
2021/11/19 01:58:38;;;;;;;55.05;31.70;;;10.80;90.80;;;;;;5076338;28;20036;-79
2021/11/19 02:01:16;;;;;;;58.03;31.55;;;10.70;90.80;;;;;;5079416;28;20017;-79
2021/11/19 02:03:51;;;;;;;52.80;30.95;;;10.80;90.90;;;;;;5079577;28;20029;-79
2021/11/19 02:06:20;;;;;;;54.60;30.95;;;10.80;90.80;;;;;;5078248;28;20060;-79
2021/11/19 02:08:47;;;;;;;53.75;30.48;;;10.70;90.80;;;;;;5079426;28;20056;-79
2021/11/19 02:11:48;;;;;;;52.20;29.35;;;10.70;90.80;;;;;;5079555;28;20111;-79
2021/11/19 02:14:46;;;;;;;47.20;28.98;;;10.70;90.90;;;;;;5062813;28;20491;-79
2021/11/19 02:17:12;;;;;;;52.53;27.80;;;10.70;90.90;;;;;;5059420;28;20067;-78
2021/11/19 02:19:46;;;;;;;52.03;28.10;;;10.80;90.90;;;;;;5079347;28;20020;-78
2021/11/19 02:22:20;;;;;;;45.97;28.00;;;10.70;90.90;;;;;;5079162;28;20032;-78
2021/11/19 02:24:54;;;;;;;51.67;28.83;;;10.70;90.90;;;;;;5079044;28;20021;-78
2021/11/19 02:27:41;;;;;;;52.53;30.30;;;10.70;90.90;;;;;;5079172;28;20032;-78
2021/11/19 02:30:16;;;;;;;58.35;34.65;;;10.70;90.90;;;;;;5067035;28;20071;-78
2021/11/19 02:32:46;;;;;;;61.72;33.15;;;10.70;90.90;;;;;;5078453;28;20025;-78
2021/11/19 02:35:17;;;;;;;58.75;31.85;;;10.70;90.90;;;;;;5079024;28;20487;-78
2021/11/19 02:37:51;;;;;;;53.92;32.08;;;10.70;90.90;;;;;;5078542;28;20109;-78
2021/11/19 02:40:24;;;;;;;49.30;31.13;;;10.70;90.90;;;;;;5078741;28;20103;-78
2021/11/19 02:42:55;;;;;;;52.03;30.80;;;10.70;90.90;;;;;;5065652;28;20067;-78
2021/11/19 02:45:26;;;;;;;47.88;29.90;;;10.70;90.90;;;;;;5078689;28;20027;-78
2021/11/19 02:47:52;;;;;;;53.03;32.22;;;10.70;90.90;;;;;;5065055;28;20032;-78
2021/11/19 02:50:19;;;;;;;50.50;29.83;;;10.70;90.90;;;;;;5077337;28;20406;-78
2021/11/19 02:52:48;;;;;;;47.72;30.40;;;10.70;90.90;;;;;;5078454;28;20024;-78
2021/11/19 02:55:19;;;;;;;55.75;34.88;;;10.70;90.90;;;;;;5073578;28;20027;-78
2021/11/19 02:57:45;;;;;;;57.05;32.13;;;10.70;90.90;;;;;;5078603;28;20476;-78
2021/11/19 03:00:18;;;;;;;50.72;31.48;;;10.70;90.90;;;;;;5078438;28;20058;-78
2021/11/19 03:02:44;;;;;;;52.88;30.27;;;10.70;90.90;;;;;;5078166;28;20020;-78
2021/11/19 03:05:14;;;;;;;53.47;30.77;;;10.70;91.00;;;;;;5078284;28;20031;-78
2021/11/19 03:07:40;;;;;;;50.25;32.90;;;10.70;90.90;;;;;;5078466;28;20491;-78
2021/11/19 03:10:18;;;;;;;54.03;29.13;;;10.60;90.90;;;;;;5076688;28;20028;-78
2021/11/19 03:12:44;;;;;;;42.53;27.90;;;10.70;91.00;;;;;;5078084;28;20021;-78
2021/11/19 03:15:14;;;;;;;45.45;28.20;;;10.70;90.90;;;;;;5078053;28;20090;-78
2021/11/19 03:17:40;;;;;;;45.25;28.10;;;10.70;90.90;;;;;;5077815;28;20034;-78
2021/11/19 03:20:09;;;;;;;47.13;26.60;;;10.70;90.90;;;;;;5077909;28;20099;-78
2021/11/19 03:22:36;;;;;;;44.40;27.42;;;10.70;90.90;;;;;;5078055;28;20483;-78
2021/11/19 03:25:03;;;;;;;46.10;27.85;;;10.70;90.90;;;;;;5077717;28;20052;-78
2021/11/19 03:27:30;;;;;;;39.83;25.73;;;10.70;90.90;;;;;;5077821;28;20551;-79
2021/11/19 03:29:57;;;;;;;46.78;26.80;;;10.70;90.90;;;;;;5077787;28;20424;-79
2021/11/19 03:32:30;;;;;;;44.22;26.95;;;10.70;90.90;;;;;;5077398;28;20502;-78
2021/11/19 03:34:56;;;;;;;;;;;10.70;90.90;;;;;;5078228;28;20107;-79
2021/11/19 03:37:21;;;;;;;45.70;28.33;;;10.60;91.10;;;;;;5077676;28;19959;-78
2021/11/19 03:39:48;;;;;;;42.78;27.40;;;10.70;90.90;;;;;;5077654;28;20025;-78
2021/11/19 03:42:16;;;;;;;43.50;27.50;;;10.70;90.90;;;;;;5077337;28;20759;-78
2021/11/19 03:44:50;;;;;;;40.33;26.50;;;10.70;90.90;;;;;;5077642;28;20032;-78
2021/11/19 03:47:28;;;;;;;48.30;26.33;;;10.70;90.90;;;;;;5063713;28;20052;-78
2021/11/19 03:49:55;;;;;;;48.42;27.80;;;10.70;90.90;;;;;;5077706;28;20475;-78
2021/11/19 03:52:28;;;;;;;45.13;26.40;;;10.70;90.90;;;;;;5077408;28;20028;-78
2021/11/19 03:54:57;;;;;;;37.97;24.42;;;10.70;90.90;;;;;;5072701;28;20033;-78
2021/11/19 03:57:24;;;;;;;41.10;24.65;;;10.70;90.90;;;;;;5077431;28;20104;-78
2021/11/19 03:59:51;;;;;;;43.45;23.20;;;10.60;90.90;;;;;;5077415;28;20433;-78
2021/11/19 04:02:19;;;;;;;42.58;25.23;;;10.60;90.90;;;;;;5077018;28;20550;-78
2021/11/19 04:04:46;;;;;;;46.33;25.10;;;10.60;90.90;;;;;;5077463;28;20031;-78
2021/11/19 04:07:14;;;;;;;50.53;25.95;;;10.60;90.90;;;;;;5077210;28;20033;-79
2021/11/19 04:09:40;;;;;;;45.53;24.88;;;10.60;90.80;;;;;;5075992;28;20486;-78
2021/11/19 04:12:07;;;;;;;41.47;24.98;;;10.60;90.80;;;;;;5077089;28;20074;-79
2021/11/19 04:14:33;;;;;;;51.30;27.63;;;10.60;90.80;;;;;;5077174;28;20082;-78
2021/11/19 04:17:00;;;;;;;49.20;26.17;;;10.60;90.80;;;;;;5076902;28;20017;-78
2021/11/19 04:19:27;;;;;;;43.63;26.02;;;10.60;90.80;;;;;;5075911;28;20021;-78
2021/11/19 04:21:57;;;;;;;49.20;26.48;;;10.60;90.80;;;;;;5077480;28;20084;-78
2021/11/19 04:24:32;;;;;;;45.38;26.20;;;10.50;90.80;;;;;;5077074;28;20441;-78
2021/11/19 04:26:58;;;;;;;47.42;25.80;;;10.50;90.80;;;;;;5077375;28;20028;-78
2021/11/19 04:29:24;;;;;;;45.70;24.63;;;10.50;90.70;;;;;;5077273;28;20033;-78
2021/11/19 04:31:50;;;;;;;37.50;22.48;;;10.40;90.60;;;;;;5076872;28;20021;-79
2021/11/19 04:34:16;;;;;;;41.05;21.77;;;10.40;90.50;;;;;;5076800;28;20084;-78
2021/11/19 04:36:42;;;;;;;37.40;21.95;;;10.30;90.40;;;;;;5077150;28;20407;-78
2021/11/19 04:39:10;;;;;;;40.63;21.95;;;10.20;90.30;;;;;;5076978;28;20122;-78
2021/11/19 04:41:37;;;;;;;43.55;23.42;;;10.10;90.30;;;;;;5077273;28;20021;-78
2021/11/19 04:44:04;;;;;;;36.17;21.15;;;10.00;90.30;;;;;;5076844;28;20021;-78
2021/11/19 04:46:31;;;;;;;36.78;21.60;;;10.00;90.20;;;;;;5068406;28;20017;-78
2021/11/19 04:48:57;;;;;;;31.70;21.00;;;9.90;90.20;;;;;;5071900;28;20086;-78
2021/11/19 04:51:27;;;;;;;33.85;21.88;;;9.80;90.20;;;;;;5076915;28;20045;-78
2021/11/19 04:53:53;;;;;;;38.63;21.48;;;9.70;90.20;;;;;;5073185;28;20032;-78
2021/11/19 04:56:22;;;;;;;43.88;22.63;;;9.70;90.20;;;;;;5080863;28;20395;-78
2021/11/19 04:58:48;;;;;;;36.30;20.75;;;9.60;90.30;;;;;;5080849;28;20438;-78
2021/11/19 05:01:25;;;;;;;34.33;21.60;;;9.50;90.20;;;;;;5079195;28;20024;-78
2021/11/19 05:03:51;;;;;;;34.70;20.25;;;9.50;90.20;;;;;;5080664;28;20479;-78
2021/11/19 05:06:17;;;;;;;39.00;22.23;;;9.40;90.20;;;;;;5080655;28;20048;-78
2021/11/19 05:08:43;;;;;;;36.95;21.98;;;9.30;90.20;;;;;;5080429;28;20444;-78
2021/11/19 05:11:13;;;;;;;34.65;19.75;;;9.20;90.20;;;;;;5080566;28;20102;-78
2021/11/19 05:13:40;;;;;;;37.60;21.52;;;9.20;90.20;;;;;;5080204;28;20043;-78
2021/11/19 05:16:09;;;;;;;33.45;20.48;;;9.10;90.10;;;;;;5080034;28;20091;-78
2021/11/19 05:18:36;;;;;;;36.08;19.98;;;9.00;90.10;;;;;;5080342;28;20095;-78
2021/11/19 05:21:04;;;;;;;32.80;19.90;;;9.00;90.10;;;;;;5080329;28;20410;-78
2021/11/19 05:23:30;;;;;;;34.92;20.50;;;9.00;90.20;;;;;;5067405;28;20024;-78
2021/11/19 05:25:57;;;;;;;35.40;21.90;;;8.90;90.10;;;;;;5080081;28;20028;-79
2021/11/19 05:28:23;;;;;;;36.15;22.13;;;8.80;90.10;;;;;;5080322;28;20028;-77
2021/11/19 05:30:50;;;;;;;32.25;20.42;;;8.80;90.10;;;;;;5079753;28;20107;-78
2021/11/19 05:33:19;;;;;;;36.67;20.85;;;8.70;90.10;;;;;;5080142;28;20028;-78
2021/11/19 05:35:46;;;;;;;36.67;21.60;;;8.70;90.20;;;;;;5079950;28;20024;-82
2021/11/19 05:38:12;;;;;;;34.58;22.45;;;8.60;90.10;;;;;;5079944;28;20052;-80
2021/11/19 05:40:38;;;;;;;33.03;21.17;;;8.60;90.20;;;;;;5079835;28;20089;-79
2021/11/19 05:43:05;;;;;;;33.58;20.05;;;8.60;90.10;;;;;;5079976;28;20036;-82
2021/11/19 05:45:33;;;;;;;31.73;19.85;;;8.50;90.10;;;;;;5079298;28;20032;-79
2021/11/19 05:48:00;;;;;;;31.90;21.13;;;8.40;90.10;;;;;;5067032;28;20493;-84
2021/11/19 05:50:28;;;;;;;31.45;19.90;;;8.40;90.10;;;;;;5079733;28;20024;-74
2021/11/19 05:52:57;;;;;;;32.10;19.42;;;8.40;90.10;;;;;;5078925;28;20032;-78
2021/11/19 05:55:26;;;;;;;30.52;19.55;;;8.30;90.10;;;;;;5072966;28;20383;-78
2021/11/19 05:57:52;;;;;;;34.58;21.02;;;8.20;90.00;;;;;;5079721;28;20029;-78
2021/11/19 06:00:21;;;;;;;34.20;19.42;;;8.20;90.10;;;;;;5079384;28;20111;-76
2021/11/19 06:02:49;;;;;;;34.58;20.30;;;8.10;90.00;;;;;;5079564;28;20025;-75
2021/11/19 06:05:15;;;;;;;29.08;19.10;;;8.10;90.10;;;;;;5078243;28;20037;-80
2021/11/19 06:07:42;;;;;;;33.97;20.60;;;8.10;90.10;;;;;;5079578;28;20395;-76
2021/11/19 06:10:09;;;;;;;31.10;19.13;;;8.00;90.30;;;;;;5079307;28;20032;-82
2021/11/19 06:12:42;;;;;;;31.15;19.02;;;8.00;90.00;;;;;;5079318;28;20032;-81
2021/11/19 06:15:16;;;;;;;32.60;18.15;;;7.90;90.00;;;;;;5079328;28;20027;-79
2021/11/19 06:17:45;;;;;;;32.35;18.27;;;7.90;90.00;;;;;;5079070;28;20028;-79
2021/11/19 06:20:21;;;;;;;32.88;17.70;;;7.80;90.00;;;;;;5079138;28;20032;-79
2021/11/19 06:22:55;;;;;;;30.10;17.75;;;7.80;90.00;;;;;;5079315;28;20028;-78
2021/11/19 06:25:30;;;;;;;25.58;16.55;;;7.80;90.00;;;;;;5079059;28;20027;-78
2021/11/19 06:28:00;;;;;;;27.30;18.20;;;7.70;90.00;;;;;;5079012;28;20024;-79
2021/11/19 06:30:27;;;;;;;29.65;17.88;;;7.70;90.00;;;;;;5078742;28;20023;-79
2021/11/19 06:32:52;;;;;;;28.35;18.17;;;7.60;90.30;;;;;;5078783;28;20458;-79
2021/11/19 06:35:19;;;;;;;25.85;17.63;;;7.60;90.00;;;;;;5079261;28;20097;-80
2021/11/19 06:37:45;;;;;;;30.05;19.08;;;7.50;90.00;;;;;;5078756;28;20127;-79
2021/11/19 06:40:16;;;;;;;31.40;18.48;;;7.50;90.00;;;;;;5078780;28;20093;-79
2021/11/19 06:42:44;;;;;;;27.40;16.85;;;7.40;90.00;;;;;;5077328;28;20490;-79
2021/11/19 06:45:11;;;;;;;32.33;18.70;;;7.40;90.00;;;;;;5078795;28;20017;-78
2021/11/19 06:47:37;;;;;;;28.38;17.98;;;7.40;90.00;;;;;;5065105;28;20017;-78
2021/11/19 06:50:04;;;;;;;28.10;16.70;;;7.30;90.00;;;;;;5078657;28;20468;-77
2021/11/19 06:52:30;;;;;;;27.48;17.08;;;7.30;90.00;;;;;;5078447;28;20017;-78
2021/11/19 06:54:56;;;;;;;26.27;17.35;;;7.30;90.00;;;;;;5073659;28;20028;-79
2021/11/19 06:57:22;;;;;;;26.08;17.38;;;7.20;90.00;;;;;;5078341;28;20091;-79
2021/11/19 06:59:48;;;;;;;29.85;16.95;;;7.20;90.00;;;;;;5078561;28;20120;-78
2021/11/19 07:02:14;;;;;;;29.65;18.83;;;7.20;90.00;;;;;;5077367;28;20074;-78
2021/11/19 07:04:40;;;;;;;25.20;17.05;;;7.10;90.00;;;;;;5077863;28;20025;-78
2021/11/19 07:07:07;;;;;;;31.48;18.38;;;7.10;90.00;;;;;;5078449;28;20028;-78
2021/11/19 07:09:35;;;;;;;31.60;19.65;;;7.10;90.00;;;;;;5078233;28;20033;-78
2021/11/19 07:12:01;;;;;;;29.88;17.33;;;7.00;90.00;;;;;;5077831;28;20024;-78
2021/11/19 07:14:27;;;;;;;27.98;18.75;;;7.00;90.00;;;;;;5075751;28;20032;-78
2021/11/19 07:16:53;;;;;;;34.05;18.08;;;6.90;90.00;;;;;;5077324;28;20387;-78
2021/11/19 07:19:20;;;;;;;25.23;17.60;;;6.90;90.10;;;;;;5078091;28;20025;-78
2021/11/19 07:21:46;;;;;;;28.90;18.10;;;6.90;90.10;;;;;;5078070;28;20035;-78
2021/11/19 07:24:12;;;;;;;35.70;18.00;;;6.80;90.10;;;;;;5077973;28;20032;-78
2021/11/19 07:26:38;;;;;;;30.60;19.73;;;6.80;90.10;;;;;;5077871;28;20024;-78
2021/11/19 07:29:05;;;;;;;24.85;18.35;;;6.80;90.10;;;;;;5078001;28;20479;-78
2021/11/19 07:31:32;;;;;;;32.25;19.23;;;6.80;90.10;;;;;;5076256;28;20027;-78
2021/11/19 07:33:57;;;;;;;29.77;17.55;;;6.70;90.10;;;;;;5077475;28;20417;-78
2021/11/19 07:36:24;;;;;;;31.30;18.92;;;6.70;90.20;;;;;;5078132;28;20123;-78
2021/11/19 07:38:50;;;;;;;25.17;16.42;;;6.70;90.20;;;;;;5077771;28;20028;-78
2021/11/19 07:41:19;;;;;;;23.80;15.48;;;6.70;90.20;;;;;;5077916;28;20073;-78
2021/11/19 07:43:45;;;;;;;27.05;15.52;;;6.70;90.20;;;;;;5077831;28;20032;-78
2021/11/19 07:46:14;;;;;;;29.52;16.02;;;6.70;90.20;;;;;;5071867;28;20028;-78
2021/11/19 07:48:42;;;;;;;25.42;15.45;;;6.70;90.20;;;;;;5070446;28;20446;-78
2021/11/19 07:51:12;;;;;;;24.98;15.65;;;6.60;90.30;;;;;;5077761;28;20084;-78
2021/11/19 07:53:39;;;;;;;25.88;15.00;;;6.70;90.30;;;;;;5072512;28;20037;-78
2021/11/19 07:56:07;;;;;;;23.02;15.82;;;6.70;90.30;;;;;;5077634;28;20023;-78
2021/11/19 07:58:33;;;;;;;24.05;14.82;;;6.70;90.30;;;;;;5077490;28;20024;-78
2021/11/19 08:01:00;;;;;;;24.00;15.50;;;6.70;90.40;;;;;;5077283;28;20024;-78
2021/11/19 08:03:27;;;;;;;24.30;15.82;;;6.70;90.40;;;;;;5077433;28;20494;-78
2021/11/19 08:05:57;;;;;;;22.20;14.95;;;6.70;90.40;;;;;;5077578;28;20418;-78
2021/11/19 08:08:23;;;;;;;21.67;13.20;;;6.70;90.40;;;;;;5077369;28;20036;-78
2021/11/19 08:10:50;;;;;;;22.35;14.98;;;6.70;90.50;;;;;;5077732;28;20130;-78
2021/11/19 08:13:17;;;;;;;19.70;13.73;;;6.70;90.50;;;;;;5075788;28;20028;-78
2021/11/19 08:15:43;;;;;;;22.48;14.43;;;6.70;90.80;;;;;;5077060;28;20410;-78
2021/11/19 08:18:29;;;;;;;22.20;13.77;;;6.70;90.50;;;;;;5077230;28;20043;-79
2021/11/19 08:20:57;;;;;;;24.02;15.18;;;6.80;90.60;;;;;;5077349;28;20059;-77
2021/11/19 08:23:34;;;;;;;22.25;14.90;;;6.80;90.60;;;;;;5077053;28;20032;-77
2021/11/19 08:26:11;;;;;;;18.35;13.48;;;6.80;90.60;;;;;;5077322;28;20028;-79
2021/11/19 08:28:37;;;;;;;19.73;14.20;;;6.80;90.70;;;;;;5078702;28;20035;-77
2021/11/19 08:31:07;;;;;;;28.13;14.52;;;6.90;90.70;;;;;;5080973;28;20024;-77
2021/11/19 08:33:33;;;;;;;21.10;14.30;;;6.90;90.80;;;;;;5081034;28;20392;-77
2021/11/19 08:35:59;;;;;;;21.83;14.80;;;7.00;90.80;;;;;;5081160;28;20028;-78
2021/11/19 08:38:26;;;;;;;19.88;15.13;;;7.00;90.80;;;;;;5081259;28;20033;-78
2021/11/19 08:40:54;;;;;;;21.38;15.20;;;7.00;90.80;;;;;;5080952;28;20066;-78
2021/11/19 08:43:28;;;;;;;19.88;13.93;;;7.10;90.90;;;;;;5081026;28;20024;-78
2021/11/19 08:45:56;;;;;;;21.02;13.02;;;7.20;90.90;;;;;;5077206;28;20056;-78
2021/11/19 08:48:24;;;;;;;19.08;14.20;;;7.20;91.00;;;;;;5071623;28;20074;-78
2021/11/19 08:50:50;;;;;;;22.73;14.80;;;7.30;91.00;;;;;;5080825;28;20386;-78
2021/11/19 08:53:17;;;;;;;22.05;15.20;;;7.40;91.10;;;;;;5078904;28;20020;-78
2021/11/19 08:55:47;;;;;;;23.58;15.93;;;7.50;91.20;;;;;;5078466;28;20031;-78
2021/11/19 08:58:17;;;;;;;24.58;16.80;;;7.60;91.20;;;;;;5080723;28;20396;-78
2021/11/19 09:00:45;;;;;;;32.33;17.48;;;7.70;91.20;;;;;;5080332;28;20114;-78
2021/11/19 09:03:10;;;;;;;28.30;17.73;;;7.70;91.30;;;;;;5080767;28;20391;-78
2021/11/19 09:05:39;;;;;;;26.35;17.35;;;7.80;91.40;;;;;;5080482;28;20039;-78
2021/11/19 09:08:07;;;;;;;36.67;16.42;;;8.00;91.50;;;;;;5080680;28;20100;-78
2021/11/19 09:10:33;;;;;;;27.95;17.15;;;8.00;91.50;;;;;;5067248;28;20024;-78
2021/11/19 09:13:00;;;;;;;25.23;15.68;;;8.10;91.60;;;;;;5080347;28;20478;-78
2021/11/19 09:15:26;;;;;;;26.75;16.08;;;8.10;91.60;;;;;;5067171;28;20380;-78
2021/11/19 09:18:05;;;;;;;24.35;15.73;;;8.20;91.60;;;;;;5080406;28;20024;-78
2021/11/19 09:20:40;;;;;;;25.77;15.45;;;8.30;91.60;;;;;;5080578;28;20032;-78
2021/11/19 09:23:11;;;;;;;26.02;15.18;;;8.40;91.70;;;;;;5080191;28;20025;-78
2021/11/19 09:25:39;;;;;;;22.88;14.35;;;8.50;91.80;;;;;;5080239;28;20052;-77
2021/11/19 09:28:06;;;;;;;24.48;14.70;;;8.60;92.10;;;;;;5078767;28;20491;-77
2021/11/19 09:30:38;;;;;;;24.58;14.57;;;8.80;92.30;;;;;;5080005;28;20039;-78
2021/11/19 09:33:09;;;;;;;24.20;14.52;;;9.10;92.40;;;;;;5078570;28;20050;-77
2021/11/19 09:35:35;;;;;;;27.15;15.13;;;9.50;92.60;;;;;;5080248;28;20040;-77
2021/11/19 09:38:04;;;;;;;29.48;13.80;;;9.90;92.60;;;;;;5079845;28;20045;-77
2021/11/19 09:40:38;;;;;;;22.35;15.02;;;10.30;92.50;;;;;;5079659;28;20020;-78
2021/11/19 09:43:29;;;;;;;28.52;13.65;;;10.70;92.40;;;;;;5080037;28;20031;-78
2021/11/19 09:46:07;;;;;;;24.25;12.18;;;11.10;92.30;;;;;;5075994;28;20025;-78
2021/11/19 09:48:50;;;;;;;19.50;11.73;;;11.40;92.00;;;;;;5071757;28;20430;-78
2021/11/19 09:51:34;;;;;;;22.02;10.73;;;11.90;92.10;;;;;;5067641;28;20031;-78
2021/11/19 09:54:18;;;;;;;24.95;10.63;;;12.50;91.90;;;;;;5077860;28;20024;-78
2021/11/19 09:57:06;;;;;;;22.15;10.93;;;13.10;91.20;;;;;;5078391;28;20031;-78
2021/11/19 10:00:13;;;;;;;18.77;9.85;;;13.60;90.70;;;;;;5079845;28;20017;-78
2021/11/19 10:02:59;;;;;;;17.73;10.85;;;14.10;90.00;;;;;;5059192;28;20033;-78
2021/11/19 10:05:37;;;;;;;17.42;10.05;;;14.70;88.60;;;;;;5078175;28;20027;-78
2021/11/19 10:08:40;;;;;;;19.40;9.73;;;15.10;86.10;;;;;;5079585;28;20017;-78
2021/11/19 10:11:16;;;;;;;;;;;15.40;84.90;;;;;;5071461;28;20059;-78
2021/11/19 10:14:11;;;;;;;23.30;10.68;;;15.80;83.40;;;;;;5079101;28;20389;-78
2021/11/19 10:16:53;;;;;;;21.25;10.60;;;16.10;82.50;;;;;;5075499;28;20028;-78
2021/11/19 10:19:27;;;;;;;21.48;10.57;;;16.30;81.50;;;;;;5079307;28;20025;-78
2021/11/19 10:21:58;;;;;;;23.00;10.70;;;16.60;80.20;;;;;;5065171;28;20024;-78
2021/11/19 10:24:36;;;;;;;18.30;12.63;;;16.80;79.70;;;;;;5079037;28;20081;-78
2021/11/19 10:27:04;;;;;;;21.05;11.05;;;17.00;77.60;;;;;;5079228;28;20365;-78
2021/11/19 10:29:40;;;;;;;21.20;11.05;;;17.10;76.90;;;;;;5079009;28;20020;-78
2021/11/19 10:32:08;;;;;;;20.95;9.93;;;17.30;77.60;;;;;;5078829;28;20024;-78
2021/11/19 10:34:38;;;;;;;27.33;8.93;;;17.60;77.10;;;;;;5078891;28;20029;-78
2021/11/19 10:37:26;;;;;;;17.88;8.85;;;17.80;76.50;;;;;;5078786;28;20036;-78
2021/11/19 10:40:14;;;;;;;19.45;7.43;;;18.00;76.40;;;;;;5067537;28;20495;-78
2021/11/19 10:42:58;;;;;;;20.42;8.52;;;18.30;75.10;;;;;;5078597;28;20021;-78
2021/11/19 10:46:01;;;;;;;20.85;8.23;;;18.40;73.30;;;;;;5078299;28;20360;-78
2021/11/19 10:49:15;;;;;;;20.58;8.10;;;18.60;73.20;;;;;;5069918;28;20024;-78
2021/11/19 10:51:46;;;;;;;20.70;6.97;;;18.80;71.70;;;;;;5047062;28;20025;-78
2021/11/19 10:54:46;;;;;;;17.38;6.13;;;19.00;71.00;;;;;;5070166;28;20040;-78
2021/11/19 10:57:38;;;;;;;24.05;6.07;;;19.00;69.30;;;;;;5078453;28;20025;-78
2021/11/19 11:00:56;;;;;;;21.58;7.47;;;19.10;69.20;;;;;;5078201;28;20099;-78
2021/11/19 11:03:30;;;;;;;19.65;7.88;;;19.20;69.10;;;;;;5051302;28;20075;-78
2021/11/19 11:06:34;;;;;;;22.88;7.97;;;19.50;69.10;;;;;;5077000;28;20048;-78
2021/11/19 11:09:28;;;;;;;22.63;7.88;;;19.60;66.40;;;;;;5064744;28;20021;-78
2021/11/19 11:12:08;;;;;;;22.10;6.78;;;19.60;66.50;;;;;;5078367;28;20074;-78
2021/11/19 11:14:40;;;;;;;26.17;6.88;;;19.60;66.00;;;;;;5077945;28;20090;-78
2021/11/19 11:17:23;;;;;;;28.48;7.38;;;19.70;64.70;;;;;;5077882;28;20012;-78
2021/11/19 11:19:50;;;;;;;27.75;7.28;;;19.60;63.10;;;;;;5078172;28;20036;-78
2021/11/19 11:22:25;;;;;;;16.27;6.13;;;19.60;63.10;;;;;;5078150;28;20027;-78
2021/11/19 11:25:03;;;;;;;24.58;6.88;;;19.60;64.00;;;;;;5077908;28;20392;-78
2021/11/19 11:28:08;;;;;;;19.23;5.45;;;19.60;62.30;;;;;;5076618;28;20021;-78
2021/11/19 11:31:00;;;;;;;24.63;6.30;;;19.70;64.50;;;;;;5074322;28;20040;-77
2021/11/19 11:33:30;;;;;;;20.33;5.22;;;19.80;64.50;;;;;;5072506;28;20099;-78
2021/11/19 11:36:05;;;;;;;28.00;5.25;;;19.80;62.60;;;;;;5077232;28;20082;-78
2021/11/19 11:38:46;;;;;;;17.60;5.40;;;19.90;63.20;;;;;;5077612;28;20111;-78
2021/11/19 11:41:21;;;;;;;11.65;5.55;;;20.00;63.00;;;;;;5065505;28;20020;-73
2021/11/19 11:44:28;;;;;;;22.38;5.88;;;20.10;63.60;;;;;;5077662;28;20434;-73
2021/11/19 11:47:03;;;;;;;19.33;6.20;;;20.20;63.10;;;;;;5061606;28;20079;-76
2021/11/19 11:49:36;;;;;;;27.70;6.13;;;20.20;62.30;;;;;;5076972;28;20032;-74
2021/11/19 11:52:13;;;;;;;62.65;25.33;;;20.30;62.70;;;;;;5077340;28;20021;-74
2021/11/19 11:54:57;;;;;;;25.58;9.02;;;20.30;62.70;;;;;;5072583;28;20475;-80
2021/11/19 11:57:29;;;;;;;21.75;7.10;;;20.40;61.20;;;;;;5077433;28;20518;-80
2021/11/19 12:00:28;;;;;;;18.20;6.32;;;20.40;62.30;;;;;;5077486;28;20425;-81
2021/11/19 12:03:14;;;;;;;22.38;6.78;;;20.40;61.10;;;;;;5066854;28;20107;-80
2021/11/19 12:06:11;;;;;;;23.95;6.35;;;20.30;60.30;;;;;;5077070;28;20029;-80
2021/11/19 12:09:10;;;;;;;22.50;6.32;;;20.30;62.00;;;;;;5076681;28;20056;-80
2021/11/19 12:12:13;;;;;;;24.98;7.68;;;20.30;62.20;;;;;;5077457;28;20020;-80
2021/11/19 12:15:07;;;;;;;23.30;7.90;;;20.20;60.80;;;;;;5072005;28;20047;-80
2021/11/19 12:17:59;;;;;;;24.73;8.18;;;20.20;61.20;;;;;;5077232;28;20028;-80
2021/11/19 12:21:02;;;;;;;21.50;7.20;;;20.10;61.40;;;;;;5065215;28;20035;-81
2021/11/19 12:23:28;;;;;;;;;;;20.10;60.00;;;;;;5077628;28;20465;-80
2021/11/19 12:25:53;;;;;;;22.38;6.47;;;19.90;60.40;;;;;;5077309;28;19946;-80
2021/11/19 12:28:29;;;;;;;30.00;6.80;;;19.80;61.90;;;;;;5077185;28;20020;-81
2021/11/19 12:30:59;;;;;;;20.38;5.93;;;19.70;61.10;;;;;;5076898;28;20555;-80
2021/11/19 12:33:48;;;;;;;20.92;5.80;;;19.70;61.70;;;;;;5077174;28;20021;-80
2021/11/19 12:36:27;;;;;;;26.05;6.55;;;19.70;62.00;;;;;;5077097;28;20028;-81
2021/11/19 12:39:00;;;;;;;18.88;6.40;;;19.70;61.70;;;;;;5076429;28;20025;-81
2021/11/19 12:41:40;;;;;;;;;;;19.70;61.10;;;;;;5077388;28;20025;-80
2021/11/19 12:44:25;;;;;;;26.75;5.95;;;19.70;61.20;;;;;;5076770;28;19905;-80
2021/11/19 12:46:59;;;;;;;19.27;6.55;;;19.80;61.80;;;;;;5075187;28;20092;-80
2021/11/19 12:50:00;;;;;;;19.95;6.80;;;19.80;62.80;;;;;;5092354;28;20029;-80
2021/11/19 12:52:53;;;;;;;22.88;6.30;;;19.90;60.90;;;;;;5076372;28;20048;-80
2021/11/19 12:55:40;;;;;;;17.80;6.32;;;19.80;60.20;;;;;;5071198;28;20028;-79
2021/11/19 12:58:26;;;;;;;24.77;6.70;;;19.80;61.30;;;;;;5076873;28;20404;-80
2021/11/19 13:00:55;;;;;;;23.08;7.30;;;19.80;61.80;;;;;;5075254;28;20021;-80